createdAt,value
2018-06-19T00:00:54.267Z,84.63
2018-06-19T00:03:22.919Z,85.25
2018-06-19T00:05:51.354Z,85.11
2018-06-19T00:08:19.736Z,85.66
2018-06-19T00:10:48.243Z,85.73
2018-06-19T00:13:16.645Z,85.26
2018-06-19T00:15:45.171Z,86.17
2018-06-19T00:18:17.995Z,85.65
2018-06-19T00:20:46.779Z,85.68
2018-06-19T00:23:15.294Z,85.58
2018-06-19T00:25:43.799Z,86.18
2018-06-19T00:28:12.322Z,86.25
2018-06-19T00:30:40.791Z,87.94
2018-06-19T00:33:09.447Z,86.92
2018-06-19T00:35:37.891Z,88.22
2018-06-19T00:38:06.375Z,87.36
2018-06-19T00:40:34.879Z,86.55
2018-06-19T00:43:03.447Z,85.61
2018-06-19T00:45:32.047Z,85.81
2018-06-19T00:48:00.539Z,85.75
2018-06-19T00:50:28.931Z,86.75
2018-06-19T00:52:57.331Z,84.87
2018-06-19T00:55:25.731Z,86.08
2018-06-19T00:57:54.230Z,85.64
2018-06-19T01:00:22.904Z,86.59
2018-06-19T01:02:51.615Z,86.79
2018-06-19T01:05:20.123Z,86.55
2018-06-19T01:07:48.761Z,88.14
2018-06-19T01:10:17.207Z,86.76
2018-06-19T01:12:45.683Z,87.04
2018-06-19T01:15:14.575Z,87.16
2018-06-19T01:17:42.971Z,87.29
2018-06-19T01:20:12.515Z,87.87
2018-06-19T01:22:41.051Z,86.94
2018-06-19T01:25:09.491Z,87.28
2018-06-19T01:27:38.175Z,86.17
2018-06-19T01:30:06.693Z,86.41
2018-06-19T01:32:35.107Z,85.65
2018-06-19T01:35:03.559Z,85.63
2018-06-19T01:37:32.063Z,85.43
2018-06-19T01:40:00.740Z,85.99
2018-06-19T01:42:29.211Z,85.56
2018-06-19T01:44:57.636Z,85.20
2018-06-19T01:47:26.060Z,84.92
2018-06-19T01:49:54.535Z,88.55
2018-06-19T01:52:23.416Z,87.15
2018-06-19T01:54:51.815Z,88.52
2018-06-19T01:57:20.248Z,88.16
2018-06-19T01:59:48.746Z,87.73
2018-06-19T02:02:17.292Z,87.79
2018-06-19T02:04:46.107Z,87.39
2018-06-19T02:07:14.699Z,87.23
2018-06-19T02:09:43.083Z,87.42
2018-06-19T02:12:11.547Z,86.66
2018-06-19T02:14:39.931Z,86.83
2018-06-19T02:17:08.562Z,86.52
2018-06-19T02:19:37.067Z,87.24
2018-06-19T02:22:05.566Z,87.94
2018-06-19T02:24:34.089Z,87.99
2018-06-19T02:27:02.580Z,87.19
2018-06-19T02:29:31.071Z,88.12
2018-06-19T02:31:59.556Z,87.95
2018-06-19T02:34:28.028Z,87.94
2018-06-19T02:36:56.443Z,87.05
2018-06-19T02:39:24.908Z,87.35
2018-06-19T02:41:53.491Z,87.96
2018-06-19T02:44:21.910Z,88.13
2018-06-19T02:46:50.403Z,88.18
2018-06-19T02:49:18.823Z,87.96
2018-06-19T02:51:47.319Z,88.29
2018-06-19T02:54:15.969Z,88.17
2018-06-19T02:56:44.499Z,88.25
2018-06-19T02:59:12.912Z,87.38
2018-06-19T03:01:41.400Z,86.94
2018-06-19T03:04:09.832Z,87.28
2018-06-19T03:06:38.428Z,87.32
2018-06-19T03:09:09.347Z,87.43
2018-06-19T03:11:37.800Z,87.69
2018-06-19T03:14:06.507Z,89.41
2018-06-19T03:16:34.939Z,88.76
2018-06-19T03:19:03.782Z,90.53
2018-06-19T03:21:32.408Z,89.89
2018-06-19T03:24:01.174Z,88.74
2018-06-19T03:26:29.579Z,88.96
2018-06-19T03:28:57.976Z,89.11
2018-06-19T03:31:26.534Z,89.22
2018-06-19T03:33:55.152Z,91.99
2018-06-19T03:36:23.839Z,89.49
2018-06-19T03:38:52.255Z,89.85
2018-06-19T03:41:20.751Z,88.78
2018-06-19T03:43:49.171Z,88.39
2018-06-19T03:46:17.652Z,88.57
2018-06-19T03:48:46.143Z,89.01
2018-06-19T03:51:14.608Z,89.56
2018-06-19T03:53:43.016Z,89.24
2018-06-19T03:56:11.523Z,88.42
2018-06-19T03:58:40.015Z,88.15
2018-06-19T04:01:08.676Z,88.67
2018-06-19T04:03:37.185Z,89.12
2018-06-19T04:06:05.683Z,88.45
2018-06-19T04:08:34.215Z,88.84
2018-06-19T04:11:02.732Z,88.93
2018-06-19T04:13:31.341Z,89.14
2018-06-19T04:15:59.811Z,89.04
2018-06-19T04:18:28.263Z,88.15
2018-06-19T04:20:56.758Z,87.77
2018-06-19T04:23:25.187Z,88.23
2018-06-19T04:25:53.627Z,90.71
2018-06-19T04:28:22.156Z,88.65
2018-06-19T04:30:50.619Z,84.85
2018-06-19T04:33:19.136Z,81.40
2018-06-19T04:35:47.539Z,77.63
2018-06-19T04:38:16.383Z,75.26
2018-06-19T04:40:44.771Z,75.00
2018-06-19T04:43:13.174Z,72.28
2018-06-19T04:45:41.710Z,71.38
2018-06-19T04:48:10.174Z,70.50
2018-06-19T04:50:38.851Z,75.05
2018-06-19T04:53:07.251Z,72.69
2018-06-19T04:55:35.657Z,72.27
2018-06-19T04:58:04.181Z,71.55
2018-06-19T05:00:32.651Z,69.78
2018-06-19T05:03:01.239Z,68.78
2018-06-19T05:05:29.737Z,68.80
2018-06-19T05:07:58.129Z,68.70
2018-06-19T05:10:26.602Z,67.66
2018-06-19T05:12:55.075Z,65.92
2018-06-19T05:15:23.718Z,66.64
2018-06-19T05:17:52.220Z,67.07
2018-06-19T05:20:20.736Z,65.90
2018-06-19T05:22:49.159Z,65.65
2018-06-19T05:25:17.584Z,65.41
2018-06-19T05:27:46.255Z,63.76
2018-06-19T05:30:14.683Z,63.23
2018-06-19T05:32:43.059Z,63.14
2018-06-19T05:35:11.511Z,62.85
2018-06-19T05:37:39.970Z,61.26
2018-06-19T05:40:08.635Z,59.83
2018-06-19T05:42:37.035Z,61.53
2018-06-19T05:45:05.431Z,61.71
2018-06-19T05:47:33.951Z,61.16
2018-06-19T05:50:02.367Z,61.91
2018-06-19T05:52:30.845Z,61.13
2018-06-19T05:54:59.243Z,62.71
2018-06-19T05:57:27.687Z,60.70
2018-06-19T05:59:56.126Z,59.29
2018-06-19T06:02:24.605Z,60.05
2018-06-19T06:04:53.251Z,59.61
2018-06-19T06:07:21.671Z,59.10
2018-06-19T06:09:50.415Z,58.27
2018-06-19T06:12:18.893Z,57.46
2018-06-19T06:14:47.400Z,59.32
2018-06-19T06:17:16.089Z,58.56
2018-06-19T06:19:44.535Z,57.16
2018-06-19T06:22:12.944Z,57.62
2018-06-19T06:24:41.364Z,59.84
2018-06-19T06:27:09.923Z,58.75
2018-06-19T06:29:38.813Z,58.36
2018-06-19T06:32:07.197Z,59.60
2018-06-19T06:34:35.711Z,59.24
2018-06-19T06:37:04.207Z,58.45
2018-06-19T06:39:32.676Z,57.53
2018-06-19T06:42:01.388Z,60.15
2018-06-19T06:44:29.802Z,61.28
2018-06-19T06:46:58.290Z,60.20
2018-06-19T06:49:26.811Z,60.74
2018-06-19T06:51:55.275Z,60.51
2018-06-19T06:54:23.974Z,58.43
2018-06-19T06:56:56.519Z,61.91
2018-06-19T06:59:25.135Z,61.29
2018-06-19T07:01:53.543Z,63.35
2018-06-19T07:04:21.936Z,63.07
2018-06-19T07:06:50.827Z,63.06
2018-06-19T07:09:19.247Z,63.10
2018-06-19T07:11:47.755Z,63.76
2018-06-19T07:14:16.226Z,65.77
2018-06-19T07:16:44.752Z,65.63
2018-06-19T07:19:13.300Z,64.49
2018-06-19T07:21:41.828Z,64.18
2018-06-19T07:24:10.339Z,63.58
2018-06-19T07:26:38.860Z,62.20
2018-06-19T07:29:07.247Z,61.93
2018-06-19T07:31:35.665Z,60.79
2018-06-19T07:34:04.218Z,60.76
2018-06-19T07:36:32.731Z,59.59
2018-06-19T07:39:01.195Z,59.06
2018-06-19T07:41:29.612Z,58.83
2018-06-19T07:43:58.099Z,61.55
2018-06-19T07:46:26.557Z,62.22
2018-06-19T07:48:55.235Z,63.23
2018-06-19T07:51:23.732Z,63.11
2018-06-19T07:53:52.215Z,63.26
2018-06-19T07:56:20.623Z,64.64
2018-06-19T07:58:49.155Z,64.23
2018-06-19T08:01:17.603Z,63.58
2018-06-19T08:03:45.988Z,63.93
2018-06-19T08:06:14.382Z,63.88
2018-06-19T08:08:42.823Z,63.39
2018-06-19T08:11:11.286Z,63.33
2018-06-19T08:13:40.167Z,62.47
2018-06-19T08:16:08.687Z,63.34
2018-06-19T08:18:37.509Z,63.40
2018-06-19T08:21:06.151Z,60.45
2018-06-19T08:23:34.576Z,61.81
2018-06-19T08:26:03.279Z,61.22
2018-06-19T08:28:31.690Z,60.10
2018-06-19T08:31:00.154Z,59.07
2018-06-19T08:33:28.615Z,57.03
2018-06-19T08:35:57.035Z,58.49
2018-06-19T08:38:25.583Z,60.08
2018-06-19T08:40:54.075Z,59.65
2018-06-19T08:43:22.560Z,60.03
2018-06-19T08:45:51.369Z,60.36
2018-06-19T08:48:19.873Z,61.34
2018-06-19T08:50:48.272Z,60.85
2018-06-19T08:53:16.980Z,61.19
2018-06-19T08:55:45.420Z,60.98
2018-06-19T08:58:13.818Z,59.86
2018-06-19T09:00:42.327Z,58.71
2018-06-19T09:03:11.198Z,57.52
2018-06-19T09:05:39.725Z,57.80
2018-06-19T09:08:08.275Z,57.68
2018-06-19T09:10:36.791Z,57.30
2018-06-19T09:13:05.271Z,57.81
2018-06-19T09:15:33.795Z,57.48
2018-06-19T09:18:02.263Z,57.23
2018-06-19T09:20:31.011Z,57.71
2018-06-19T09:22:59.487Z,57.36
2018-06-19T09:25:27.924Z,58.44
2018-06-19T09:27:56.567Z,58.22
2018-06-19T09:30:25.036Z,58.12
2018-06-19T09:32:53.547Z,57.09
2018-06-19T09:35:22.011Z,59.44
2018-06-19T09:37:50.536Z,57.85
2018-06-19T09:40:18.960Z,57.23
2018-06-19T09:42:47.503Z,56.14
2018-06-19T09:45:15.979Z,55.62
2018-06-19T09:47:44.499Z,56.09
2018-06-19T09:50:13.007Z,55.68
2018-06-19T09:52:41.511Z,55.26
2018-06-19T09:55:10.117Z,55.79
2018-06-19T09:57:38.611Z,55.91
2018-06-19T10:00:07.296Z,57.25
2018-06-19T10:02:35.756Z,55.88
2018-06-19T10:05:04.267Z,51.75
2018-06-19T10:07:32.635Z,54.84
2018-06-19T10:10:01.071Z,53.25
2018-06-19T10:12:29.495Z,54.39
2018-06-19T10:14:58.069Z,56.41
2018-06-19T10:17:26.579Z,55.18
2018-06-19T10:19:55.288Z,54.54
2018-06-19T10:22:23.703Z,54.98
2018-06-19T10:24:52.114Z,55.02
2018-06-19T10:27:20.543Z,54.62
2018-06-19T10:29:48.978Z,55.29
2018-06-19T10:32:17.483Z,55.58
2018-06-19T10:34:45.963Z,54.21
2018-06-19T10:37:14.395Z,55.62
2018-06-19T10:39:42.883Z,56.45
2018-06-19T10:42:11.379Z,56.21
2018-06-19T10:44:39.774Z,53.50
2018-06-19T10:47:08.297Z,55.06
2018-06-19T10:49:36.714Z,56.17
2018-06-19T10:52:05.111Z,56.00
2018-06-19T10:54:33.776Z,55.22
2018-06-19T10:57:02.175Z,57.30
2018-06-19T10:59:30.748Z,57.52
2018-06-19T11:01:59.159Z,58.52
2018-06-19T11:04:27.600Z,58.16
2018-06-19T11:06:56.391Z,59.49
2018-06-19T11:09:24.941Z,59.32
2018-06-19T11:11:53.383Z,58.62
2018-06-19T11:14:21.939Z,58.63
2018-06-19T11:16:50.395Z,57.88
2018-06-19T11:19:18.791Z,56.42
2018-06-19T11:21:47.231Z,57.02
2018-06-19T11:24:15.644Z,56.88
2018-06-19T11:26:44.151Z,54.01
2018-06-19T11:29:12.531Z,56.29
2018-06-19T11:31:41.028Z,55.86
2018-06-19T11:34:09.532Z,57.36
2018-06-19T11:36:38.056Z,57.24
2018-06-19T11:39:10.669Z,57.77
2018-06-19T11:41:39.383Z,56.27
2018-06-19T11:44:07.960Z,57.23
2018-06-19T11:46:36.487Z,56.98
2018-06-19T11:49:04.975Z,56.26
2018-06-19T11:51:33.408Z,56.42
2018-06-19T11:54:02.323Z,56.97
2018-06-19T11:56:30.771Z,55.45
2018-06-19T11:58:59.373Z,56.99
2018-06-19T12:01:27.780Z,57.24
2018-06-19T12:03:56.370Z,56.86
2018-06-19T12:06:24.851Z,55.63
2018-06-19T12:08:53.387Z,54.58
2018-06-19T12:11:21.811Z,55.02
2018-06-19T12:13:50.249Z,53.19
2018-06-19T12:16:18.655Z,52.20
2018-06-19T12:18:47.047Z,52.28
2018-06-19T12:21:15.543Z,52.20
2018-06-19T12:23:44.012Z,52.53
2018-06-19T12:26:12.468Z,51.47
2018-06-19T12:28:41.144Z,49.68
2018-06-19T12:31:09.560Z,53.36
2018-06-19T12:33:37.963Z,54.22
2018-06-19T12:36:07.523Z,52.01
2018-06-19T12:38:36.013Z,50.63
2018-06-19T12:41:04.496Z,52.10
2018-06-19T12:43:33.011Z,53.18
2018-06-19T12:46:01.647Z,53.82
2018-06-19T12:48:30.091Z,53.33
2018-06-19T12:52:07.708Z,51.70
2018-06-19T12:55:01.138Z,51.40
2018-06-19T12:57:29.571Z,52.27
2018-06-19T12:59:58.061Z,51.48
2018-06-19T13:02:26.549Z,49.57
2018-06-19T13:05:06.199Z,49.49
2018-06-19T13:07:34.726Z,51.58
2018-06-19T13:10:03.203Z,49.93
2018-06-19T13:12:42.747Z,49.40
2018-06-19T13:15:11.160Z,48.53
2018-06-19T13:17:50.844Z,49.43
2018-06-19T13:20:30.415Z,48.77
2018-06-19T13:22:58.867Z,50.84
2018-06-19T13:25:27.707Z,49.85
2018-06-19T13:27:56.156Z,49.67
2018-06-19T13:30:35.782Z,49.41
2018-06-19T13:33:04.172Z,51.80
2018-06-19T13:35:32.583Z,50.59
2018-06-19T13:38:00.972Z,49.74
2018-06-19T13:41:09.473Z,49.82
2018-06-19T13:43:49.216Z,49.38
2018-06-19T13:46:17.689Z,49.59
2018-06-19T13:48:46.142Z,49.83
2018-06-19T13:51:14.620Z,49.17
2018-06-19T13:53:43.885Z,49.26
2018-06-19T13:57:32.863Z,48.16
2018-06-19T14:00:02.704Z,47.01
2018-06-19T14:02:31.183Z,46.58
2018-06-19T14:05:00.010Z,48.83
2018-06-19T14:07:29.460Z,48.15
2018-06-19T14:10:09.187Z,48.43
2018-06-19T14:13:03.410Z,47.25
2018-06-19T14:15:37.287Z,49.21
2018-06-19T14:18:06.269Z,50.80
2018-06-19T14:20:34.964Z,50.01
2018-06-19T14:23:03.464Z,48.77
2018-06-19T14:25:31.953Z,50.22
2018-06-19T14:28:00.371Z,50.29
2018-06-19T14:30:28.809Z,51.13
2018-06-19T14:32:57.296Z,51.98
2018-06-19T14:35:25.831Z,50.17
2018-06-19T14:37:54.258Z,50.33
2018-06-19T14:40:22.787Z,48.79
2018-06-19T14:42:51.331Z,49.98
2018-06-19T14:45:19.833Z,49.83
2018-06-19T14:47:48.283Z,49.54
2018-06-19T14:50:16.772Z,50.71
2018-06-19T14:52:45.204Z,49.53
2018-06-19T14:55:13.647Z,51.44
2018-06-19T14:57:42.113Z,51.35
2018-06-19T15:00:11.207Z,52.89
2018-06-19T15:02:40.127Z,52.64
2018-06-19T15:05:09.037Z,53.32
2018-06-19T15:07:38.524Z,52.11
2018-06-19T15:10:08.250Z,53.11
2018-06-19T15:12:36.708Z,52.83
2018-06-19T15:15:05.139Z,53.65
2018-06-19T15:17:33.627Z,54.20
2018-06-19T15:20:02.083Z,53.40
2018-06-19T15:22:30.507Z,53.21
2018-06-19T15:24:59.003Z,53.31
2018-06-19T15:27:27.483Z,51.00
2018-06-19T15:29:55.975Z,52.54
2018-06-19T15:32:24.439Z,52.69
2018-06-19T15:34:52.882Z,52.63
2018-06-19T15:37:21.483Z,53.95
2018-06-19T15:39:49.946Z,53.25
2018-06-19T15:42:18.327Z,51.88
2018-06-19T15:44:46.736Z,54.13
2018-06-19T15:47:15.195Z,54.90
2018-06-19T15:49:43.744Z,54.51
2018-06-19T15:52:12.221Z,54.05
2018-06-19T15:54:40.631Z,53.40
2018-06-19T15:57:09.138Z,54.30
2018-06-19T15:59:37.510Z,53.80
2018-06-19T16:02:05.976Z,53.87
2018-06-19T16:04:34.391Z,53.61
2018-06-19T16:07:02.883Z,54.29
2018-06-19T16:09:31.343Z,55.18
2018-06-19T16:11:59.877Z,54.37
2018-06-19T16:14:28.323Z,56.17
2018-06-19T16:16:56.760Z,55.49
2018-06-19T16:19:25.227Z,54.28
2018-06-19T16:21:53.739Z,56.09
2018-06-19T16:24:22.140Z,55.48
2018-06-19T16:26:50.555Z,55.65
2018-06-19T16:29:19.154Z,54.14
2018-06-19T16:31:47.596Z,54.13
2018-06-19T16:34:16.099Z,55.52
2018-06-19T16:36:44.622Z,55.30
2018-06-19T16:39:13.499Z,56.65
2018-06-19T16:41:41.959Z,56.04
2018-06-19T16:44:10.508Z,55.67
2018-06-19T16:46:39.049Z,54.18
2018-06-19T16:49:07.839Z,53.57
2018-06-19T16:51:36.247Z,53.67
2018-06-19T16:54:04.763Z,54.35
2018-06-19T16:56:33.185Z,55.36
2018-06-19T16:59:01.612Z,53.51
2018-06-19T17:01:30.071Z,54.20
2018-06-19T17:03:58.466Z,54.88
2018-06-19T17:06:27.191Z,53.77
2018-06-19T17:08:55.787Z,53.80
2018-06-19T17:11:24.248Z,54.83
2018-06-19T17:13:52.723Z,55.11
2018-06-19T17:16:21.830Z,55.55
2018-06-19T17:18:50.243Z,54.92
2018-06-19T17:21:18.671Z,55.48
2018-06-19T17:23:47.360Z,54.97
2018-06-19T17:26:15.896Z,55.20
2018-06-19T17:28:44.383Z,54.46
2018-06-19T17:31:12.880Z,53.46
2018-06-19T17:33:41.297Z,54.44
2018-06-19T17:36:10.150Z,54.55
2018-06-19T17:38:38.713Z,53.58
2018-06-19T17:41:07.367Z,54.84
2018-06-19T17:43:35.868Z,53.72
2018-06-19T17:46:04.331Z,53.83
2018-06-19T17:48:32.814Z,54.27
2018-06-19T17:51:01.370Z,54.58
2018-06-19T17:53:29.908Z,53.77
2018-06-19T17:55:58.463Z,55.18
2018-06-19T17:58:26.921Z,55.48
2018-06-19T18:00:55.791Z,54.81
2018-06-19T18:03:24.236Z,55.85
2018-06-19T18:05:52.720Z,57.69
2018-06-19T18:08:21.199Z,59.04
2018-06-19T18:10:49.748Z,58.27
2018-06-19T18:13:18.241Z,59.67
2018-06-19T18:15:46.738Z,60.19
2018-06-19T18:18:16.298Z,59.86
2018-06-19T18:20:44.856Z,59.58
2018-06-19T18:23:14.243Z,58.97
2018-06-19T18:25:43.013Z,59.15
2018-06-19T18:28:11.960Z,59.19
2018-06-19T18:30:40.559Z,58.53
2018-06-19T18:33:09.160Z,58.93
2018-06-19T18:35:38.648Z,59.00
2018-06-19T18:38:07.819Z,58.61
2018-06-19T18:40:36.350Z,59.98
2018-06-19T18:43:05.345Z,59.03
2018-06-19T18:45:34.946Z,58.55
2018-06-19T18:48:03.992Z,59.67
2018-06-19T18:50:32.763Z,59.15
2018-06-19T18:53:01.300Z,60.57
2018-06-19T18:55:30.326Z,60.86
2018-06-19T18:57:58.889Z,61.01
2018-06-19T19:00:27.399Z,61.68
2018-06-19T19:02:55.937Z,62.61
2018-06-19T19:05:24.510Z,63.50
2018-06-19T19:07:54.052Z,63.95
2018-06-19T19:10:27.644Z,65.48
2018-06-19T19:12:56.916Z,65.01
2018-06-19T19:15:30.993Z,66.10
2018-06-19T19:18:04.862Z,65.57
2018-06-19T19:20:34.365Z,67.22
2018-06-19T19:23:02.903Z,66.93
2018-06-19T19:25:31.471Z,66.68
2018-06-19T19:28:05.324Z,67.07
2018-06-19T19:30:33.774Z,66.67
2018-06-19T19:33:02.788Z,67.87
2018-06-19T19:35:32.015Z,67.43
2018-06-19T19:39:09.092Z,67.69
2018-06-19T19:41:37.631Z,67.97
2018-06-19T19:44:07.089Z,68.35
2018-06-19T19:46:40.876Z,69.56
2018-06-19T19:49:09.617Z,69.48
2018-06-19T19:51:38.076Z,70.76
2018-06-19T19:54:06.854Z,72.21
2018-06-19T19:56:40.634Z,73.17
2018-06-19T19:59:09.060Z,73.34
2018-06-19T20:01:37.543Z,74.17
2018-06-19T20:04:06.070Z,74.14
2018-06-19T20:06:34.916Z,75.32
2018-06-19T20:09:03.765Z,75.45
2018-06-19T20:11:32.225Z,74.33
2018-06-19T20:14:00.772Z,75.33
2018-06-19T20:16:29.307Z,75.78
2018-06-19T20:18:57.970Z,75.49
2018-06-19T20:21:26.473Z,75.48
2018-06-19T20:23:55.127Z,76.20
2018-06-19T20:26:23.587Z,77.56
2018-06-19T20:28:52.065Z,78.05
2018-06-19T20:31:20.611Z,76.34
2018-06-19T20:33:49.117Z,76.85
2018-06-19T20:36:17.679Z,78.54
2018-06-19T20:38:46.202Z,79.14
2018-06-19T20:41:14.617Z,78.66
2018-06-19T20:43:43.310Z,79.55
2018-06-19T20:46:11.819Z,79.64
2018-06-19T20:48:40.255Z,79.22
2018-06-19T20:51:08.959Z,79.90
2018-06-19T20:53:37.455Z,79.89
2018-06-19T20:56:05.950Z,79.34
2018-06-19T20:58:34.395Z,79.53
2018-06-19T21:01:02.892Z,80.81
2018-06-19T21:03:31.427Z,80.68
2018-06-19T21:05:59.876Z,80.87
2018-06-19T21:08:33.771Z,79.79
2018-06-19T21:11:02.201Z,79.64
2018-06-19T21:13:30.616Z,79.76
2018-06-19T21:15:59.066Z,79.60
2018-06-19T21:18:27.455Z,78.94
2018-06-19T21:20:56.075Z,78.37
2018-06-19T21:23:24.514Z,78.78
2018-06-19T21:25:52.939Z,78.19
2018-06-19T21:28:21.336Z,81.07
2018-06-19T21:30:50.087Z,80.87
2018-06-19T21:33:18.711Z,81.27
2018-06-19T21:35:47.132Z,80.89
2018-06-19T21:38:15.691Z,80.62
2018-06-19T21:40:44.131Z,80.08
2018-06-19T21:43:12.580Z,80.02
2018-06-19T21:45:41.179Z,79.73
2018-06-19T21:48:09.579Z,80.42
2018-06-19T21:50:37.991Z,80.10
2018-06-19T21:53:06.651Z,79.82
2018-06-19T21:55:35.108Z,80.80
2018-06-19T21:58:03.600Z,80.95
2018-06-19T22:00:32.072Z,81.88
2018-06-19T22:03:00.549Z,80.85
2018-06-19T22:05:29.068Z,81.40
2018-06-19T22:07:57.527Z,81.93
2018-06-19T22:10:26.059Z,81.12
2018-06-19T22:12:54.480Z,80.89
2018-06-19T22:15:23.131Z,83.31
2018-06-19T22:17:51.631Z,82.25
2018-06-19T22:20:20.136Z,82.36
2018-06-19T22:22:48.655Z,83.65
2018-06-19T22:25:17.106Z,82.07
2018-06-19T22:27:45.776Z,81.94
2018-06-19T22:30:14.238Z,81.99
2018-06-19T22:32:42.694Z,82.62
2018-06-19T22:35:11.220Z,84.33
2018-06-19T22:37:39.707Z,84.15
2018-06-19T22:40:08.346Z,83.69
2018-06-19T22:42:36.762Z,84.68
2018-06-19T22:45:05.599Z,84.17
2018-06-19T22:47:34.239Z,84.33
2018-06-19T22:50:02.608Z,84.58
2018-06-19T22:52:31.228Z,85.01
2018-06-19T22:54:59.759Z,86.90
2018-06-19T22:57:28.150Z,84.93
2018-06-19T22:59:56.600Z,83.93
2018-06-19T23:02:25.028Z,84.27
2018-06-19T23:04:53.999Z,83.81
2018-06-19T23:07:22.372Z,84.30
2018-06-19T23:09:50.795Z,83.41
2018-06-19T23:12:19.210Z,84.37
2018-06-19T23:14:47.695Z,84.23
2018-06-19T23:17:16.267Z,84.32
2018-06-19T23:19:44.679Z,84.34
2018-06-19T23:22:13.166Z,84.08
2018-06-19T23:24:41.707Z,83.82
2018-06-19T23:27:10.156Z,84.00
2018-06-19T23:29:38.762Z,84.99
2018-06-19T23:32:07.248Z,86.17
2018-06-19T23:34:35.715Z,86.16
2018-06-19T23:37:04.179Z,86.44
2018-06-19T23:39:32.635Z,86.31
2018-06-19T23:42:01.345Z,86.02
2018-06-19T23:44:29.943Z,85.04
2018-06-19T23:46:58.327Z,85.99
2018-06-19T23:49:26.855Z,85.78
2018-06-19T23:51:55.307Z,85.37
2018-06-19T23:54:24.090Z,86.00
2018-06-19T23:56:52.514Z,87.09
2018-06-19T23:59:20.991Z,86.56
